createdAt,value
2018-05-09T00:00:15.103Z,1003.77
2018-05-09T00:01:14.992Z,1003.74
2018-05-09T00:02:15.018Z,1003.77
2018-05-09T00:03:14.820Z,1003.76
2018-05-09T00:04:14.815Z,1003.78
2018-05-09T00:05:14.682Z,1003.75
2018-05-09T00:06:14.632Z,1003.79
2018-05-09T00:07:14.522Z,1003.75
2018-05-09T00:08:14.523Z,1003.75
2018-05-09T00:09:14.386Z,1003.72
2018-05-09T00:10:14.351Z,1003.74
2018-05-09T00:11:14.211Z,1003.76
2018-05-09T00:12:14.252Z,1003.73
2018-05-09T00:13:14.045Z,1003.75
2018-05-09T00:14:14.096Z,1003.75
2018-05-09T00:15:13.886Z,1003.72
2018-05-09T00:16:13.906Z,1003.76
2018-05-09T00:17:13.749Z,1003.72
2018-05-09T00:18:13.783Z,1003.78
2018-05-09T00:19:13.600Z,1003.76
2018-05-09T00:20:13.598Z,1003.80
2018-05-09T00:21:13.437Z,1003.75
2018-05-09T00:22:13.389Z,1003.78
2018-05-09T00:23:13.263Z,1003.77
2018-05-09T00:24:13.306Z,1003.78
2018-05-09T00:25:13.152Z,1003.79
2018-05-09T00:26:13.141Z,1003.74
2018-05-09T00:27:12.954Z,1003.74
2018-05-09T00:28:12.921Z,1003.70
2018-05-09T00:29:12.803Z,1003.73
2018-05-09T00:30:12.830Z,1003.72
2018-05-09T00:31:12.706Z,1003.68
2018-05-09T00:32:12.640Z,1003.71
2018-05-09T00:33:12.503Z,1003.71
2018-05-09T00:34:12.548Z,1003.67
2018-05-09T00:35:12.342Z,1003.67
2018-05-09T00:36:12.361Z,1003.62
2018-05-09T00:37:12.206Z,1003.64
2018-05-09T00:38:12.162Z,1003.59
2018-05-09T00:39:12.030Z,1003.67
2018-05-09T00:40:12.081Z,1003.64
2018-05-09T00:41:11.895Z,1003.65
2018-05-09T00:42:11.934Z,1003.61
2018-05-09T00:43:11.729Z,1003.64
2018-05-09T00:44:11.704Z,1003.62
2018-05-09T00:45:11.567Z,1003.62
2018-05-09T00:46:11.598Z,1003.62
2018-05-09T00:47:11.435Z,1003.61
2018-05-09T00:48:11.417Z,1003.58
2018-05-09T00:49:11.270Z,1003.59
2018-05-09T00:50:11.235Z,1003.56
2018-05-09T00:51:11.107Z,1003.59
2018-05-09T00:52:11.162Z,1003.56
2018-05-09T00:53:10.969Z,1003.58
2018-05-09T00:54:10.940Z,1003.57
2018-05-09T00:55:10.807Z,1003.58
2018-05-09T00:57:52.690Z,1003.57
2018-05-09T01:00:34.642Z,1003.50
2018-05-09T01:01:34.646Z,1003.49
2018-05-09T01:02:34.487Z,1003.47
2018-05-09T01:03:34.489Z,1003.48
2018-05-09T01:04:34.338Z,1003.51
2018-05-09T01:05:34.371Z,1003.50
2018-05-09T01:06:34.179Z,1003.49
2018-05-09T01:07:34.179Z,1003.52
2018-05-09T01:08:34.056Z,1003.50
2018-05-09T01:11:16.150Z,1003.53
2018-05-09T01:12:16.187Z,1003.53
2018-05-09T01:13:16.052Z,1003.46
2018-05-09T01:15:58.156Z,1003.51
2018-05-09T01:16:58.195Z,1003.51
2018-05-09T01:17:57.990Z,1003.50
2018-05-09T01:18:58.030Z,1003.46
2018-05-09T01:19:57.841Z,1003.43
2018-05-09T01:20:57.808Z,1003.44
2018-05-09T01:21:57.680Z,1003.43
2018-05-09T01:24:11.725Z,1003.42
2018-05-09T01:24:12.261Z,1003.40
2018-05-09T01:26:54.162Z,1003.38
2018-05-09T01:29:36.195Z,1003.40
2018-05-09T01:30:36.173Z,1003.42
2018-05-09T01:31:35.998Z,1003.39
2018-05-09T01:34:18.166Z,1003.44
2018-05-09T01:35:18.186Z,1003.42
2018-05-09T01:36:18.014Z,1003.43
2018-05-09T01:37:17.989Z,1003.44
2018-05-09T01:38:17.846Z,1003.44
2018-05-09T01:39:18.854Z,1003.46
2018-05-09T01:40:17.698Z,1003.43
2018-05-09T01:41:17.713Z,1003.47
2018-05-09T01:42:17.533Z,1003.45
2018-05-09T01:43:17.517Z,1003.48
2018-05-09T01:44:17.396Z,1003.46
2018-05-09T01:45:17.429Z,1003.44
2018-05-09T01:46:17.219Z,1003.46
2018-05-09T01:47:17.235Z,1003.44
2018-05-09T01:48:17.072Z,1003.45
2018-05-09T01:49:18.103Z,1003.45
2018-05-09T01:50:16.933Z,1003.41
2018-05-09T01:51:16.890Z,1003.46
2018-05-09T01:52:16.761Z,1003.42
2018-05-09T01:53:16.776Z,1003.42
2018-05-09T01:54:16.605Z,1003.44
2018-05-09T01:55:16.567Z,1003.43
2018-05-09T01:56:16.478Z,1003.44
2018-05-09T01:57:16.487Z,1003.44
2018-05-09T01:58:16.297Z,1003.41
2018-05-09T02:00:58.181Z,1003.39
2018-05-09T02:03:40.155Z,1003.42
2018-05-09T02:04:40.181Z,1003.42
2018-05-09T02:05:40.032Z,1003.42
2018-05-09T02:06:39.981Z,1003.46
2018-05-09T02:07:39.871Z,1003.49
2018-05-09T02:08:39.800Z,1003.47
2018-05-09T02:09:39.690Z,1003.45
2018-05-09T02:10:39.750Z,1003.47
2018-05-09T02:11:39.560Z,1003.47
2018-05-09T02:12:39.515Z,1003.45
2018-05-09T02:13:39.392Z,1003.49
2018-05-09T02:16:21.693Z,1003.50
2018-05-09T02:17:21.672Z,1003.44
2018-05-09T02:18:21.513Z,1003.45
2018-05-09T02:19:21.547Z,1003.43
2018-05-09T02:20:21.345Z,1003.44
2018-05-09T02:21:21.375Z,1003.44
2018-05-09T02:22:21.188Z,1003.43
2018-05-09T02:24:16.245Z,1003.43
2018-05-09T02:24:21.033Z,1003.43
2018-05-09T02:25:21.069Z,1003.45
2018-05-09T02:26:20.898Z,1003.41
2018-05-09T02:27:20.910Z,1003.44
2018-05-09T02:28:20.734Z,1003.45
2018-05-09T02:29:20.692Z,1003.45
2018-05-09T02:30:20.573Z,1003.45
2018-05-09T02:31:20.594Z,1003.43
2018-05-09T02:32:20.416Z,1003.44
2018-05-09T02:33:20.433Z,1003.46
2018-05-09T02:34:20.268Z,1003.39
2018-05-09T02:35:20.212Z,1003.41
2018-05-09T02:36:20.114Z,1003.36
2018-05-09T02:39:02.184Z,1003.35
2018-05-09T02:41:44.165Z,1003.36
2018-05-09T02:42:44.169Z,1003.34
2018-05-09T02:43:44.099Z,1003.37
2018-05-09T02:46:26.168Z,1003.33
2018-05-09T02:47:26.133Z,1003.31
2018-05-09T02:48:26.034Z,1003.35
2018-05-09T02:49:26.045Z,1003.32
2018-05-09T02:50:25.861Z,1003.34
2018-05-09T02:51:25.857Z,1003.32
2018-05-09T02:52:25.728Z,1003.33
2018-05-09T02:53:25.702Z,1003.31
2018-05-09T02:54:25.580Z,1003.32
2018-05-09T02:55:25.569Z,1003.31
2018-05-09T02:56:25.385Z,1003.35
2018-05-09T02:57:25.389Z,1003.33
2018-05-09T02:58:25.246Z,1003.38
2018-05-09T02:59:25.312Z,1003.37
2018-05-09T03:00:25.084Z,1003.39
2018-05-09T03:03:07.180Z,1003.45
2018-05-09T03:04:07.233Z,1003.43
2018-05-09T03:05:07.080Z,1003.44
2018-05-09T03:06:07.006Z,1003.45
2018-05-09T03:07:06.860Z,1003.46
2018-05-09T03:08:06.813Z,1003.47
2018-05-09T03:09:06.759Z,1003.48
2018-05-09T03:10:06.718Z,1003.50
2018-05-09T03:11:06.553Z,1003.47
2018-05-09T03:12:06.525Z,1003.51
2018-05-09T03:13:06.401Z,1003.44
2018-05-09T03:14:06.376Z,1003.47
2018-05-09T03:15:06.281Z,1003.48
2018-05-09T03:17:48.178Z,1003.51
2018-05-09T03:18:48.147Z,1003.52
2018-05-09T03:19:48.049Z,1003.48
2018-05-09T03:20:48.055Z,1003.48
2018-05-09T03:21:47.876Z,1003.58
2018-05-09T03:22:47.868Z,1003.56
2018-05-09T03:23:47.715Z,1003.55
2018-05-09T03:24:47.708Z,1003.55
2018-05-09T03:25:47.566Z,1003.54
2018-05-09T03:28:29.681Z,1003.50
2018-05-09T03:29:29.732Z,1003.55
2018-05-09T03:30:29.538Z,1003.56
2018-05-09T03:31:29.492Z,1003.55
2018-05-09T03:32:29.372Z,1003.55
2018-05-09T03:33:29.404Z,1003.56
2018-05-09T03:34:29.219Z,1003.57
2018-05-09T03:35:29.248Z,1003.56
2018-05-09T03:36:29.061Z,1003.54
2018-05-09T03:37:29.054Z,1003.54
2018-05-09T03:38:28.901Z,1003.51
2018-05-09T03:39:28.938Z,1003.51
2018-05-09T03:40:28.763Z,1003.50
2018-05-09T03:41:28.747Z,1003.50
2018-05-09T03:42:28.584Z,1003.50
2018-05-09T03:43:28.543Z,1003.55
2018-05-09T03:44:28.461Z,1003.52
2018-05-09T03:45:28.485Z,1003.54
2018-05-09T03:46:28.303Z,1003.53
2018-05-09T03:47:28.260Z,1003.54
2018-05-09T03:48:28.135Z,1003.55
2018-05-09T03:49:28.074Z,1003.56
2018-05-09T03:50:27.971Z,1003.58
2018-05-09T03:51:28.034Z,1003.62
2018-05-09T03:52:27.806Z,1003.65
2018-05-09T03:53:27.801Z,1003.65
2018-05-09T03:54:27.655Z,1003.66
2018-05-09T03:55:27.606Z,1003.65
2018-05-09T03:56:27.516Z,1003.67
2018-05-09T03:57:27.516Z,1003.69
2018-05-09T03:58:27.338Z,1003.73
2018-05-09T03:59:27.327Z,1003.71
2018-05-09T04:00:27.189Z,1003.74
2018-05-09T04:01:27.170Z,1003.69
2018-05-09T04:02:27.027Z,1003.68
2018-05-09T04:03:27.050Z,1003.71
2018-05-09T04:04:26.868Z,1003.71
2018-05-09T04:05:26.849Z,1003.70
2018-05-09T04:06:26.726Z,1003.75
2018-05-09T04:09:08.695Z,1003.77
2018-05-09T04:10:08.665Z,1003.79
2018-05-09T04:11:08.556Z,1003.70
2018-05-09T04:12:08.567Z,1003.75
2018-05-09T04:13:08.467Z,1003.77
2018-05-09T04:14:08.381Z,1003.75
2018-05-09T04:15:08.216Z,1003.76
2018-05-09T04:16:08.229Z,1003.72
2018-05-09T04:17:08.068Z,1003.71
2018-05-09T04:18:08.095Z,1003.73
2018-05-09T04:19:07.916Z,1003.74
2018-05-09T04:20:07.913Z,1003.72
2018-05-09T04:21:07.834Z,1003.71
2018-05-09T04:23:49.701Z,1003.77
2018-05-09T04:24:49.717Z,1003.78
2018-05-09T04:25:49.548Z,1003.79
2018-05-09T04:26:49.559Z,1003.76
2018-05-09T04:27:49.389Z,1003.75
2018-05-09T04:30:31.201Z,1003.75
2018-05-09T04:33:13.236Z,1003.76
2018-05-09T04:35:55.205Z,1003.76
2018-05-09T04:36:55.216Z,1003.74
2018-05-09T04:37:55.062Z,1003.76
2018-05-09T04:40:37.205Z,1003.74
2018-05-09T04:41:37.228Z,1003.79
2018-05-09T04:42:37.081Z,1003.70
2018-05-09T04:45:19.206Z,1003.75
2018-05-09T04:48:01.220Z,1003.80
2018-05-09T04:50:43.197Z,1003.85
2018-05-09T04:51:43.230Z,1003.78
2018-05-09T04:52:43.078Z,1003.82
2018-05-09T04:54:27.795Z,1003.83
2018-05-09T04:54:42.945Z,1003.82
2018-05-09T04:55:42.904Z,1003.83
2018-05-09T04:56:42.851Z,1003.79
2018-05-09T04:57:42.651Z,1003.82
2018-05-09T04:58:42.684Z,1003.85
2018-05-09T04:59:42.503Z,1003.81
2018-05-09T05:00:42.465Z,1003.81
2018-05-09T05:01:42.336Z,1003.87
2018-05-09T05:04:24.237Z,1003.86
2018-05-09T05:05:26.237Z,1003.88
2018-05-09T05:06:24.063Z,1003.91
2018-05-09T05:07:24.093Z,1003.92
2018-05-09T05:08:23.917Z,1003.91
2018-05-09T05:09:23.922Z,1003.93
2018-05-09T05:10:23.746Z,1003.92
2018-05-09T05:11:23.709Z,1003.96
2018-05-09T05:12:23.585Z,1003.95
2018-05-09T05:13:23.628Z,1003.97
2018-05-09T05:14:23.438Z,1003.94
2018-05-09T05:15:23.426Z,1003.98
2018-05-09T05:16:23.308Z,1003.94
2018-05-09T05:17:23.246Z,1003.94
2018-05-09T05:18:23.111Z,1003.95
2018-05-09T05:19:23.182Z,1003.97
2018-05-09T05:20:22.981Z,1003.99
2018-05-09T05:21:22.956Z,1004.00
2018-05-09T05:22:22.803Z,1003.97
2018-05-09T05:23:22.755Z,1003.97
2018-05-09T05:24:22.650Z,1004.03
2018-05-09T05:25:22.696Z,1004.04
2018-05-09T05:26:22.487Z,1004.03
2018-05-09T05:27:22.490Z,1004.02
2018-05-09T05:28:22.343Z,1004.01
2018-05-09T05:29:22.329Z,1004.02
2018-05-09T05:30:22.174Z,1004.05
2018-05-09T05:31:22.096Z,1004.01
2018-05-09T05:32:22.015Z,1004.04
2018-05-09T05:33:22.016Z,1004.07
2018-05-09T05:34:21.887Z,1004.10
2018-05-09T05:35:22.063Z,1004.05
2018-05-09T05:36:21.698Z,1004.14
2018-05-09T05:37:21.758Z,1004.10
2018-05-09T05:38:21.538Z,1004.10
2018-05-09T05:39:21.541Z,1004.15
2018-05-09T05:40:21.446Z,1004.17
2018-05-09T05:43:03.214Z,1004.03
2018-05-09T05:44:03.243Z,1004.07
2018-05-09T05:45:03.205Z,1004.12
2018-05-09T05:46:04.099Z,1004.08
2018-05-09T05:47:02.906Z,1004.07
2018-05-09T05:49:45.248Z,1004.00
2018-05-09T05:50:45.222Z,1004.06
2018-05-09T05:51:45.063Z,1004.08
2018-05-09T05:54:27.227Z,1004.03
2018-05-09T05:55:27.197Z,1004.04
2018-05-09T05:56:27.108Z,1004.06
2018-05-09T05:57:27.090Z,1004.04
2018-05-09T05:58:26.911Z,1004.04
2018-05-09T05:59:26.897Z,1004.07
2018-05-09T06:00:26.755Z,1004.05
2018-05-09T06:01:26.725Z,1004.11
2018-05-09T06:02:26.611Z,1004.12
2018-05-09T06:03:26.607Z,1004.07
2018-05-09T06:04:26.443Z,1004.22
2018-05-09T06:05:26.419Z,1004.36
2018-05-09T06:06:26.332Z,1004.54
2018-05-09T06:07:26.328Z,1004.53
2018-05-09T06:08:26.139Z,1004.54
2018-05-09T06:09:26.150Z,1004.62
2018-05-09T06:10:26.037Z,1004.67
2018-05-09T06:11:25.995Z,1004.69
2018-05-09T06:12:25.815Z,1004.64
2018-05-09T06:13:25.864Z,1004.71
2018-05-09T06:14:25.692Z,1004.76
2018-05-09T06:15:25.669Z,1004.78
2018-05-09T06:16:25.541Z,1004.77
2018-05-09T06:17:26.538Z,1004.82
2018-05-09T06:18:25.375Z,1004.83
2018-05-09T06:21:07.307Z,1004.82
2018-05-09T06:22:07.281Z,1004.84
2018-05-09T06:23:07.106Z,1004.86
2018-05-09T06:24:34.828Z,1004.88
2018-05-09T06:25:06.929Z,1004.87
2018-05-09T06:26:06.906Z,1004.93
2018-05-09T06:27:06.788Z,1004.98
2018-05-09T06:28:06.832Z,1005.01
2018-05-09T06:29:06.645Z,1005.10
2018-05-09T06:31:48.760Z,1005.15
2018-05-09T06:32:48.733Z,1005.18
2018-05-09T06:33:48.589Z,1005.10
2018-05-09T06:34:48.618Z,1005.17
2018-05-09T06:35:48.442Z,1005.09
2018-05-09T06:36:48.465Z,1005.04
2018-05-09T06:37:48.346Z,1005.03
2018-05-09T06:40:30.254Z,1005.02
2018-05-09T06:41:30.244Z,1005.02
2018-05-09T06:42:30.103Z,1005.05
2018-05-09T06:43:30.072Z,1005.02
2018-05-09T06:44:29.961Z,1004.95
2018-05-09T06:47:12.233Z,1004.87
2018-05-09T06:49:54.312Z,1004.93
2018-05-09T06:52:36.262Z,1005.00
2018-05-09T06:54:36.828Z,1004.92
2018-05-09T06:54:37.360Z,1004.92
2018-05-09T06:55:37.397Z,1004.98
2018-05-09T06:56:37.186Z,1004.99
2018-05-09T06:57:37.201Z,1004.95
2018-05-09T06:58:37.084Z,1005.06
2018-05-09T06:59:37.021Z,1004.98
2018-05-09T07:00:36.916Z,1004.99
2018-05-09T07:01:36.973Z,1004.88
2018-05-09T07:02:36.783Z,1004.92
2018-05-09T07:03:37.798Z,1004.89
2018-05-09T07:04:36.643Z,1004.91
2018-05-09T07:05:36.594Z,1004.97
2018-05-09T07:06:36.554Z,1004.93
2018-05-09T07:09:18.760Z,1004.95
2018-05-09T07:10:18.787Z,1004.88
2018-05-09T07:11:18.613Z,1004.92
2018-05-09T07:12:18.572Z,1004.89
2018-05-09T07:13:18.456Z,1004.88
2018-05-09T07:14:18.447Z,1004.99
2018-05-09T07:15:18.354Z,1005.03
2018-05-09T07:16:18.392Z,1005.00
2018-05-09T07:17:18.181Z,1005.00
2018-05-09T07:20:00.273Z,1004.97
2018-05-09T07:21:00.331Z,1004.96
2018-05-09T07:22:00.120Z,1004.96
2018-05-09T07:23:00.142Z,1004.95
2018-05-09T07:23:59.978Z,1004.89
2018-05-09T07:25:00.009Z,1004.89
2018-05-09T07:25:59.844Z,1004.86
2018-05-09T07:26:59.833Z,1004.87
2018-05-09T07:27:59.717Z,1004.86
2018-05-09T07:28:59.735Z,1004.83
2018-05-09T07:29:59.554Z,1004.80
2018-05-09T07:30:59.556Z,1004.83
2018-05-09T07:31:59.448Z,1004.79
2018-05-09T07:32:59.501Z,1004.83
2018-05-09T07:33:59.276Z,1004.79
2018-05-09T07:34:59.258Z,1004.77
2018-05-09T07:35:59.234Z,1004.79
2018-05-09T07:37:00.149Z,1004.78
2018-05-09T07:37:59.049Z,1004.77
2018-05-09T07:38:58.946Z,1004.81
2018-05-09T07:39:58.880Z,1004.82
2018-05-09T07:40:58.903Z,1004.82
2018-05-09T07:41:58.762Z,1004.91
2018-05-09T07:42:58.805Z,1004.83
2018-05-09T07:43:58.626Z,1004.87
2018-05-09T07:46:40.798Z,1004.81
2018-05-09T07:47:40.929Z,1004.82
2018-05-09T07:48:40.666Z,1004.81
2018-05-09T07:49:40.589Z,1004.85
2018-05-09T07:50:40.498Z,1004.87
2018-05-09T07:51:40.536Z,1004.82
2018-05-09T07:52:40.358Z,1004.87
2018-05-09T07:53:40.377Z,1004.90
2018-05-09T07:54:40.223Z,1004.97
2018-05-09T07:55:40.384Z,1004.94
2018-05-09T07:56:40.093Z,1004.93
2018-05-09T07:57:40.341Z,1004.89
2018-05-09T07:58:39.973Z,1004.91
2018-05-09T07:59:39.986Z,1004.81
2018-05-09T08:00:39.821Z,1004.77
2018-05-09T08:01:40.380Z,1004.75
2018-05-09T08:02:39.688Z,1004.70
2018-05-09T08:03:39.654Z,1004.72
2018-05-09T08:04:39.583Z,1004.73
2018-05-09T08:05:39.612Z,1004.70
2018-05-09T08:06:39.424Z,1004.71
2018-05-09T08:09:25.293Z,1004.71
2018-05-09T08:10:25.297Z,1004.76
2018-05-09T08:11:25.208Z,1004.75
2018-05-09T08:12:25.108Z,1004.82
2018-05-09T08:13:25.007Z,1004.86
2018-05-09T08:14:25.077Z,1004.82
2018-05-09T08:15:24.882Z,1004.86
2018-05-09T08:16:24.979Z,1004.83
2018-05-09T08:17:24.770Z,1004.81
2018-05-09T08:20:06.817Z,1004.80
2018-05-09T08:21:06.829Z,1004.85
2018-05-09T08:22:06.637Z,1004.81
2018-05-09T08:23:06.650Z,1004.83
2018-05-09T08:24:06.512Z,1004.80
2018-05-09T08:25:08.572Z,1004.80
2018-05-09T08:26:06.369Z,1004.87
2018-05-09T08:27:06.381Z,1004.84
2018-05-09T08:28:06.304Z,1004.89
2018-05-09T08:30:48.303Z,1004.91
2018-05-09T08:31:50.331Z,1004.86
2018-05-09T08:32:48.145Z,1004.91
2018-05-09T08:33:48.262Z,1004.95
2018-05-09T08:34:48.050Z,1004.94
2018-05-09T08:35:47.988Z,1004.93
2018-05-09T08:36:47.932Z,1004.93
2018-05-09T08:39:29.791Z,1004.97
2018-05-09T08:40:29.750Z,1004.94
2018-05-09T08:41:29.663Z,1004.95
2018-05-09T08:42:29.614Z,1004.92
2018-05-09T08:43:29.652Z,1005.02
2018-05-09T08:46:11.805Z,1005.01
2018-05-09T08:48:53.801Z,1005.00
2018-05-09T08:49:53.730Z,1005.09
2018-05-09T08:50:53.671Z,1005.10
2018-05-09T08:51:53.603Z,1005.07
2018-05-09T08:52:53.527Z,1005.06
2018-05-09T08:53:53.477Z,1005.04
2018-05-09T08:54:53.425Z,1005.07
2018-05-09T08:55:53.361Z,1005.11
2018-05-09T08:56:53.265Z,1005.06
2018-05-09T08:57:53.212Z,1005.10
2018-05-09T08:58:53.147Z,1005.02
2018-05-09T09:01:35.326Z,1005.06
2018-05-09T09:02:35.315Z,1005.04
2018-05-09T09:03:35.179Z,1005.08
2018-05-09T09:04:35.180Z,1005.03
2018-05-09T09:05:35.055Z,1005.04
2018-05-09T09:06:35.107Z,1005.09
2018-05-09T09:07:34.905Z,1005.08
2018-05-09T09:08:34.857Z,1005.07
2018-05-09T09:09:34.785Z,1005.07
2018-05-09T09:10:34.709Z,1005.07
2018-05-09T09:11:34.674Z,1005.07
2018-05-09T09:12:34.599Z,1005.06
2018-05-09T09:13:34.539Z,1005.05
2018-05-09T09:14:34.450Z,1005.03
2018-05-09T09:15:34.516Z,1005.12
2018-05-09T09:16:34.375Z,1005.07
2018-05-09T09:17:34.264Z,1005.08
2018-05-09T09:18:34.199Z,1005.07
2018-05-09T09:19:34.150Z,1005.07
2018-05-09T09:22:16.330Z,1005.10
2018-05-09T09:24:58.311Z,1005.12
2018-05-09T09:27:40.321Z,1005.11
2018-05-09T09:28:40.260Z,1005.08
2018-05-09T09:29:40.180Z,1005.08
2018-05-09T09:30:40.122Z,1005.09
2018-05-09T09:31:40.062Z,1005.06
2018-05-09T09:32:41.006Z,1005.02
2018-05-09T09:33:39.921Z,1005.05
2018-05-09T09:34:39.866Z,1005.04
2018-05-09T09:35:39.808Z,1005.02
2018-05-09T09:38:21.884Z,1004.98
2018-05-09T09:39:21.743Z,1004.95
2018-05-09T09:40:21.679Z,1004.93
2018-05-09T09:41:21.657Z,1004.88
2018-05-09T09:42:21.582Z,1004.85
2018-05-09T09:45:03.804Z,1004.83
2018-05-09T09:47:46.076Z,1004.81
2018-05-09T09:48:45.749Z,1004.76
2018-05-09T09:49:45.682Z,1004.75
2018-05-09T09:52:27.839Z,1004.73
2018-05-09T09:53:27.792Z,1004.75
2018-05-09T09:54:27.708Z,1004.74
2018-05-09T09:57:09.812Z,1004.67
2018-05-09T09:58:09.784Z,1004.61
2018-05-09T09:59:09.716Z,1004.61
2018-05-09T10:01:51.809Z,1004.54
2018-05-09T10:02:52.775Z,1004.49
2018-05-09T10:03:51.706Z,1004.51
2018-05-09T10:04:51.636Z,1004.45
2018-05-09T10:05:51.574Z,1004.47
2018-05-09T10:06:51.537Z,1004.57
2018-05-09T10:07:51.440Z,1004.50
2018-05-09T10:08:51.404Z,1004.48
2018-05-09T10:09:51.324Z,1004.47
2018-05-09T10:12:33.389Z,1004.41
2018-05-09T10:13:33.289Z,1004.41
2018-05-09T10:14:33.219Z,1004.33
2018-05-09T10:17:15.322Z,1004.33
2018-05-09T10:18:17.258Z,1004.34
2018-05-09T10:19:15.239Z,1004.32
2018-05-09T10:21:57.319Z,1004.28
2018-05-09T10:24:39.358Z,1004.20
2018-05-09T10:25:39.286Z,1004.18
2018-05-09T10:26:39.197Z,1004.23
2018-05-09T10:27:39.160Z,1004.20
2018-05-09T10:28:39.130Z,1004.22
2018-05-09T10:29:39.023Z,1004.21
2018-05-09T10:30:38.971Z,1004.16
2018-05-09T10:31:38.892Z,1004.09
2018-05-09T10:32:38.842Z,1004.06
2018-05-09T10:35:20.890Z,1004.00
2018-05-09T10:38:02.819Z,1004.00
2018-05-09T10:39:02.780Z,1003.99
2018-05-09T10:40:02.752Z,1004.03
2018-05-09T10:42:44.846Z,1003.95
2018-05-09T10:43:44.832Z,1003.95
2018-05-09T10:44:44.713Z,1003.93
2018-05-09T10:45:44.720Z,1003.95
2018-05-09T10:46:44.602Z,1003.89
2018-05-09T10:47:44.542Z,1003.89
2018-05-09T10:48:44.480Z,1003.83
2018-05-09T10:49:44.437Z,1003.81
2018-05-09T10:50:44.377Z,1003.84
2018-05-09T10:53:26.340Z,1003.78
2018-05-09T10:54:26.291Z,1003.79
2018-05-09T10:55:26.258Z,1003.77
2018-05-09T10:58:08.333Z,1003.72
2018-05-09T10:59:08.288Z,1003.79
2018-05-09T11:00:08.264Z,1003.75
2018-05-09T11:01:09.184Z,1003.77
2018-05-09T11:02:08.105Z,1003.72
2018-05-09T11:03:08.047Z,1003.74
2018-05-09T11:04:07.978Z,1003.72
2018-05-09T11:06:50.391Z,1003.71
2018-05-09T11:07:50.281Z,1003.70
2018-05-09T11:08:50.217Z,1003.67
2018-05-09T11:11:32.372Z,1003.66
2018-05-09T11:12:32.276Z,1003.64
2018-05-09T11:13:32.225Z,1003.64
2018-05-09T11:14:32.173Z,1003.67
2018-05-09T11:15:32.120Z,1003.70
2018-05-09T11:16:32.063Z,1003.79
2018-05-09T11:17:32.049Z,1003.69
2018-05-09T11:18:31.935Z,1003.72
2018-05-09T11:19:31.933Z,1003.67
2018-05-09T11:20:31.816Z,1003.65
2018-05-09T11:21:31.769Z,1003.64
2018-05-09T11:22:31.698Z,1003.59
2018-05-09T11:23:31.607Z,1003.61
2018-05-09T11:24:31.569Z,1003.62
2018-05-09T11:25:31.497Z,1003.64
2018-05-09T11:26:31.469Z,1003.60
2018-05-09T11:27:31.375Z,1003.62
2018-05-09T11:28:31.328Z,1003.57
2018-05-09T11:29:31.268Z,1003.55
2018-05-09T11:30:31.208Z,1003.54
2018-05-09T11:31:31.183Z,1003.55
2018-05-09T11:32:31.076Z,1003.56
2018-05-09T11:33:31.021Z,1003.52
2018-05-09T11:34:30.961Z,1003.51
2018-05-09T11:35:30.889Z,1003.50
2018-05-09T11:36:30.883Z,1003.50
2018-05-09T11:37:30.865Z,1003.47
2018-05-09T11:38:30.774Z,1003.45
2018-05-09T11:39:30.648Z,1003.46
2018-05-09T11:40:30.729Z,1003.46
2018-05-09T11:41:30.534Z,1003.50
2018-05-09T11:42:31.556Z,1003.29
2018-05-09T11:43:30.445Z,1002.99
2018-05-09T11:44:30.406Z,1002.90
2018-05-09T11:45:30.300Z,1002.88
2018-05-09T11:48:12.379Z,1002.87
2018-05-09T11:49:12.305Z,1002.85
2018-05-09T11:50:12.228Z,1002.80
2018-05-09T11:52:54.502Z,1002.72
2018-05-09T11:53:54.747Z,1002.78
2018-05-09T11:54:54.228Z,1002.73
2018-05-09T11:55:54.200Z,1002.69
2018-05-09T11:56:54.095Z,1002.65
2018-05-09T11:57:54.086Z,1002.71
2018-05-09T11:58:53.990Z,1002.68
2018-05-09T11:59:53.910Z,1002.68
2018-05-09T12:00:53.862Z,1002.68
2018-05-09T12:03:35.887Z,1002.66
2018-05-09T12:04:35.801Z,1002.62
2018-05-09T12:05:35.729Z,1002.66
2018-05-09T12:06:35.666Z,1002.61
2018-05-09T12:07:35.598Z,1002.65
2018-05-09T12:08:35.539Z,1002.62
2018-05-09T12:09:35.462Z,1002.58
2018-05-09T12:12:17.367Z,1002.55
2018-05-09T12:13:17.304Z,1002.51
2018-05-09T12:14:17.238Z,1002.53
2018-05-09T12:15:17.155Z,1002.53
2018-05-09T12:16:17.081Z,1002.51
2018-05-09T12:18:59.414Z,1002.48
2018-05-09T12:19:59.321Z,1002.50
2018-05-09T12:20:59.260Z,1002.47
2018-05-09T12:21:59.184Z,1002.41
2018-05-09T12:22:59.102Z,1002.40
2018-05-09T12:23:59.154Z,1002.43
2018-05-09T12:24:59.004Z,1002.45
2018-05-09T12:26:01.306Z,1002.47
2018-05-09T12:26:58.815Z,1002.45
2018-05-09T12:29:44.893Z,1002.42
2018-05-09T12:30:44.859Z,1002.40
2018-05-09T12:31:44.732Z,1002.36
2018-05-09T12:32:44.750Z,1002.36
2018-05-09T12:33:44.612Z,1002.35
2018-05-09T12:34:44.688Z,1002.36
2018-05-09T12:35:44.451Z,1002.34
2018-05-09T12:36:44.478Z,1002.31
2018-05-09T12:37:44.322Z,1002.34
2018-05-09T12:38:44.269Z,1002.37
2018-05-09T12:39:44.219Z,1002.30
2018-05-09T12:40:44.227Z,1002.27
2018-05-09T12:41:44.043Z,1002.24
2018-05-09T12:42:43.967Z,1002.19
2018-05-09T12:43:43.957Z,1002.21
2018-05-09T12:44:43.846Z,1002.18
2018-05-09T12:45:43.791Z,1002.20
2018-05-09T12:46:43.718Z,1002.17
2018-05-09T12:47:43.630Z,1002.20
2018-05-09T12:50:25.906Z,1002.19
2018-05-09T12:51:25.944Z,1002.15
2018-05-09T12:52:25.734Z,1002.18
2018-05-09T12:55:07.874Z,1002.11
2018-05-09T12:56:07.967Z,1002.08
2018-05-09T12:57:07.731Z,1002.09
2018-05-09T12:58:07.767Z,1002.08
2018-05-09T12:59:07.618Z,1002.07
2018-05-09T13:00:07.568Z,1002.11
2018-05-09T13:01:07.477Z,1002.07
2018-05-09T13:02:07.392Z,1002.04
2018-05-09T13:03:07.323Z,1001.97
2018-05-09T13:04:07.279Z,1001.98
2018-05-09T13:05:07.203Z,1002.00
2018-05-09T13:06:07.112Z,1001.97
2018-05-09T13:07:07.066Z,1002.05
2018-05-09T13:08:07.005Z,1001.99
2018-05-09T13:09:06.889Z,1002.02
2018-05-09T13:10:06.916Z,1001.97
2018-05-09T13:11:06.760Z,1001.95
2018-05-09T13:12:06.749Z,1001.90
2018-05-09T13:13:06.619Z,1001.92
2018-05-09T13:14:06.565Z,1001.88
2018-05-09T13:15:06.486Z,1001.89
2018-05-09T13:16:06.417Z,1001.88
2018-05-09T13:17:06.361Z,1001.88
2018-05-09T13:18:06.275Z,1001.88
2018-05-09T13:19:06.180Z,1001.88
2018-05-09T13:20:06.123Z,1001.90
2018-05-09T13:21:06.053Z,1001.82
2018-05-09T13:22:05.982Z,1001.78
2018-05-09T13:23:05.943Z,1001.80
2018-05-09T13:24:05.880Z,1001.79
2018-05-09T13:25:05.790Z,1001.78
2018-05-09T13:27:47.909Z,1001.71
2018-05-09T13:28:47.880Z,1001.66
2018-05-09T13:29:47.757Z,1001.67
2018-05-09T13:32:29.924Z,1001.68
2018-05-09T13:33:29.903Z,1001.74
2018-05-09T13:34:29.769Z,1001.69
2018-05-09T13:35:29.813Z,1001.65
2018-05-09T13:36:29.605Z,1001.66
2018-05-09T13:37:29.612Z,1001.64
2018-05-09T13:38:29.491Z,1001.59
2018-05-09T13:41:11.411Z,1001.59
2018-05-09T13:43:53.424Z,1001.57
2018-05-09T13:44:53.433Z,1001.57
2018-05-09T13:45:53.273Z,1001.56
2018-05-09T13:48:35.410Z,1001.58
2018-05-09T13:49:35.436Z,1001.59
2018-05-09T13:50:35.253Z,1001.54
2018-05-09T13:51:35.294Z,1001.54
2018-05-09T13:52:35.119Z,1001.49
2018-05-09T13:53:35.234Z,1001.52
2018-05-09T13:54:34.967Z,1001.57
2018-05-09T13:57:17.397Z,1001.46
2018-05-09T13:58:17.400Z,1001.52
2018-05-09T13:59:17.361Z,1001.44
2018-05-09T14:01:59.395Z,1001.42
2018-05-09T14:04:41.420Z,1001.37
2018-05-09T14:07:23.428Z,1001.40
2018-05-09T14:10:05.444Z,1001.37
2018-05-09T14:11:09.375Z,1001.33
2018-05-09T14:12:05.275Z,1001.32
2018-05-09T14:13:07.229Z,1001.34
2018-05-09T14:14:05.166Z,1001.32
2018-05-09T14:15:05.139Z,1001.31
2018-05-09T14:16:04.994Z,1001.32
2018-05-09T14:17:04.993Z,1001.29
2018-05-09T14:18:04.873Z,1001.26
2018-05-09T14:19:04.919Z,1001.26
2018-05-09T14:20:04.772Z,1001.28
2018-05-09T14:22:50.917Z,1001.23
2018-05-09T14:23:50.906Z,1001.24
2018-05-09T14:24:50.841Z,1001.22
2018-05-09T14:25:50.821Z,1001.19
2018-05-09T14:26:50.639Z,1001.22
2018-05-09T14:27:50.629Z,1001.30